Shimanami Star — C6VN9 — position and weather

sailwx.info

Track history (hours):
 
Tides and Currents Weather Stations Pressure Air Temp Water Temp Dewpoint Dewpoint Depression Visibility Wind Speed Wind Dir Waves Ship Positions

Shimanami Star

Last reported at 2017-Nov-10 17:06 UTC. Time now 2017-Dec-14 10:17 UTC.
Position N 24°21' E 118°56'.
Warning: this ship's position is 33 days out of date.

Length 170 m; draft 9.3 m.

Type: Cargo ship. MMSI: 309116000.

Date/timePositionNaut miles runAvg speedWind from/ knotsBaromVisibWave heightAir tempDewpointWater temp
2017-Nov-10 17:06N 24°21' E 118°56'411.3
2017-Nov-10 16:44N 24°19' E 118°53'311.5
2017-Nov-10 16:29N 24°17' E 118°50'611.6
2017-Nov-10 15:59N 24°13' E 118°46'912.2
2017-Nov-10 15:15N 24°07' E 118°38'311.9
2017-Nov-10 14:59N 24°05' E 118°36'612.0
2017-Nov-10 14:27N 24°01' E 118°30'711.8
2017-Nov-10 13:54N 23°57' E 118°24'511.8
2017-Nov-10 13:29N 23°54' E 118°20'  
Track history (hours):
 
Tides and Currents Weather Stations Pressure Air Temp Water Temp Dewpoint Dewpoint Depression Visibility Wind Speed Wind Dir Waves Ship Positions

Shimanami Star

Last reported at 2017-Nov-10 17:06 UTC. Time now 2017-Dec-14 10:17 UTC.
Position N 24°21' E 118°56'.
Warning: this ship's position is 33 days out of date.

Length 170 m; draft 9.3 m.

Type: Cargo ship. MMSI: 309116000.

Date/timePositionNaut miles runAvg speedWind from/ knotsBaromVisibWave heightAir tempDewpointWater temp
2017-Nov-10 17:06N 24°21' E 118°56'411.3
2017-Nov-10 16:44N 24°19' E 118°53'311.5
2017-Nov-10 16:29N 24°17' E 118°50'611.6
2017-Nov-10 15:59N 24°13' E 118°46'912.2
2017-Nov-10 15:15N 24°07' E 118°38'311.9
2017-Nov-10 14:59N 24°05' E 118°36'612.0
2017-Nov-10 14:27N 24°01' E 118°30'711.8
2017-Nov-10 13:54N 23°57' E 118°24'511.8
2017-Nov-10 13:29N 23°54' E 118°20'  

Dump ship's entire track history